sensor_id;sensor_type;location;lat;lon;timestamp;P1;durP1;ratioP1;P2;durP2;ratioP2
1993;SDS011;998;49.906;10.908;2023-01-01T00:00:38;31.10;;;17.53;;
1993;SDS011;998;49.906;10.908;2023-01-01T00:03:06;31.03;;;18.90;;
1993;SDS011;998;49.906;10.908;2023-01-01T00:05:33;27.17;;;15.67;;
1993;SDS011;998;49.906;10.908;2023-01-01T00:08:03;25.80;;;13.93;;
1993;SDS011;998;49.906;10.908;2023-01-01T00:10:30;23.10;;;12.80;;
1993;SDS011;998;49.906;10.908;2023-01-01T00:12:58;28.90;;;12.23;;
1993;SDS011;998;49.906;10.908;2023-01-01T00:15:26;19.50;;;10.40;;
1993;SDS011;998;49.906;10.908;2023-01-01T00:17:55;20.50;;;10.40;;
1993;SDS011;998;49.906;10.908;2023-01-01T00:20:23;21.07;;;10.20;;
1993;SDS011;998;49.906;10.908;2023-01-01T00:22:50;23.17;;;10.27;;
1993;SDS011;998;49.906;10.908;2023-01-01T00:25:18;21.90;;;11.70;;
1993;SDS011;998;49.906;10.908;2023-01-01T00:27:46;18.63;;;10.33;;
1993;SDS011;998;49.906;10.908;2023-01-01T00:30:13;21.87;;;10.87;;
1993;SDS011;998;49.906;10.908;2023-01-01T00:32:41;21.23;;;9.40;;
1993;SDS011;998;49.906;10.908;2023-01-01T00:35:10;17.13;;;8.40;;
1993;SDS011;998;49.906;10.908;2023-01-01T00:37:37;17.17;;;8.40;;
1993;SDS011;998;49.906;10.908;2023-01-01T00:40:05;21.53;;;9.97;;
1993;SDS011;998;49.906;10.908;2023-01-01T00:42:33;16.50;;;9.10;;
1993;SDS011;998;49.906;10.908;2023-01-01T00:45:05;18.23;;;8.90;;
1993;SDS011;998;49.906;10.908;2023-01-01T00:47:33;17.77;;;8.30;;
1993;SDS011;998;49.906;10.908;2023-01-01T00:50:00;19.40;;;8.53;;
1993;SDS011;998;49.906;10.908;2023-01-01T00:52:29;16.43;;;9.13;;
1993;SDS011;998;49.906;10.908;2023-01-01T00:54:57;18.97;;;10.50;;
1993;SDS011;998;49.906;10.908;2023-01-01T00:57:24;17.00;;;8.60;;
1993;SDS011;998;49.906;10.908;2023-01-01T00:59:51;19.10;;;10.40;;
1993;SDS011;998;49.906;10.908;2023-01-01T01:02:19;20.53;;;11.37;;
1993;SDS011;998;49.906;10.908;2023-01-01T01:04:46;18.87;;;11.63;;
1993;SDS011;998;49.906;10.908;2023-01-01T01:07:13;22.07;;;10.50;;
1993;SDS011;998;49.906;10.908;2023-01-01T01:09:42;19.07;;;11.10;;
1993;SDS011;998;49.906;10.908;2023-01-01T01:12:10;18.33;;;10.10;;
1993;SDS011;998;49.906;10.908;2023-01-01T01:14:37;21.73;;;10.00;;
1993;SDS011;998;49.906;10.908;2023-01-01T01:17:04;18.67;;;10.93;;
1993;SDS011;998;49.906;10.908;2023-01-01T01:19:32;20.17;;;11.37;;
1993;SDS011;998;49.906;10.908;2023-01-01T01:21:59;21.23;;;12.10;;
1993;SDS011;998;49.906;10.908;2023-01-01T01:24:26;19.70;;;12.73;;
1993;SDS011;998;49.906;10.908;2023-01-01T01:26:55;19.30;;;11.73;;
1993;SDS011;998;49.906;10.908;2023-01-01T01:29:23;20.27;;;11.60;;
1993;SDS011;998;49.906;10.908;2023-01-01T01:31:50;20.67;;;12.10;;
1993;SDS011;998;49.906;10.908;2023-01-01T01:34:18;21.33;;;12.40;;
1993;SDS011;998;49.906;10.908;2023-01-01T01:36:45;24.53;;;12.50;;
1993;SDS011;998;49.906;10.908;2023-01-01T01:39:13;22.37;;;11.50;;
1993;SDS011;998;49.906;10.908;2023-01-01T01:41:41;22.50;;;12.30;;
1993;SDS011;998;49.906;10.908;2023-01-01T01:47:11;20.23;;;10.60;;
1993;SDS011;998;49.906;10.908;2023-01-01T01:49:41;19.00;;;9.70;;
1993;SDS011;998;49.906;10.908;2023-01-01T01:52:11;14.53;;;8.13;;
1993;SDS011;998;49.906;10.908;2023-01-01T01:54:38;16.27;;;8.40;;
1993;SDS011;998;49.906;10.908;2023-01-01T01:57:07;17.30;;;8.27;;
1993;SDS011;998;49.906;10.908;2023-01-01T01:59:36;15.23;;;7.93;;
1993;SDS011;998;49.906;10.908;2023-01-01T02:02:08;15.53;;;8.03;;
1993;SDS011;998;49.906;10.908;2023-01-01T02:04:43;15.20;;;7.33;;
1993;SDS011;998;49.906;10.908;2023-01-01T02:07:11;14.20;;;7.20;;
1993;SDS011;998;49.906;10.908;2023-01-01T02:09:39;18.93;;;7.63;;
1993;SDS011;998;49.906;10.908;2023-01-01T02:12:07;13.67;;;7.60;;
1993;SDS011;998;49.906;10.908;2023-01-01T02:14:34;13.87;;;7.40;;
1993;SDS011;998;49.906;10.908;2023-01-01T02:17:02;13.20;;;7.70;;
1993;SDS011;998;49.906;10.908;2023-01-01T02:19:39;17.27;;;8.40;;
1993;SDS011;998;49.906;10.908;2023-01-01T02:22:20;17.67;;;8.10;;
1993;SDS011;998;49.906;10.908;2023-01-01T02:24:58;14.30;;;7.57;;
1993;SDS011;998;49.906;10.908;2023-01-01T02:27:39;18.50;;;8.03;;
1993;SDS011;998;49.906;10.908;2023-01-01T02:30:17;12.97;;;6.83;;
1993;SDS011;998;49.906;10.908;2023-01-01T02:32:45;14.73;;;7.43;;
1993;SDS011;998;49.906;10.908;2023-01-01T02:35:17;14.90;;;6.57;;
1993;SDS011;998;49.906;10.908;2023-01-01T02:38:05;14.00;;;7.23;;
1993;SDS011;998;49.906;10.908;2023-01-01T02:40:37;13.90;;;6.00;;
1993;SDS011;998;49.906;10.908;2023-01-01T02:43:07;12.43;;;7.30;;
1993;SDS011;998;49.906;10.908;2023-01-01T02:45:36;10.50;;;5.97;;
1993;SDS011;998;49.906;10.908;2023-01-01T02:48:04;13.13;;;6.10;;
1993;SDS011;998;49.906;10.908;2023-01-01T02:50:33;15.47;;;6.30;;
1993;SDS011;998;49.906;10.908;2023-01-01T02:53:06;14.33;;;7.00;;
1993;SDS011;998;49.906;10.908;2023-01-01T02:55:46;13.23;;;6.73;;
1993;SDS011;998;49.906;10.908;2023-01-01T02:58:22;14.27;;;5.77;;
1993;SDS011;998;49.906;10.908;2023-01-01T03:01:15;12.00;;;5.53;;
1993;SDS011;998;49.906;10.908;2023-01-01T03:03:49;14.43;;;6.90;;
1993;SDS011;998;49.906;10.908;2023-01-01T03:06:26;18.53;;;8.30;;
1993;SDS011;998;49.906;10.908;2023-01-01T03:09:01;18.27;;;7.73;;
1993;SDS011;998;49.906;10.908;2023-01-01T03:11:36;15.47;;;9.17;;
1993;SDS011;998;49.906;10.908;2023-01-01T03:14:11;22.00;;;12.27;;
1993;SDS011;998;49.906;10.908;2023-01-01T03:16:46;23.60;;;13.67;;
1993;SDS011;998;49.906;10.908;2023-01-01T03:19:16;22.60;;;13.70;;
1993;SDS011;998;49.906;10.908;2023-01-01T03:21:47;25.07;;;15.90;;
1993;SDS011;998;49.906;10.908;2023-01-01T03:24:17;30.23;;;17.27;;
1993;SDS011;998;49.906;10.908;2023-01-01T03:26:49;25.73;;;17.07;;
1993;SDS011;998;49.906;10.908;2023-01-01T03:29:21;29.50;;;18.57;;
1993;SDS011;998;49.906;10.908;2023-01-01T03:31:52;30.53;;;18.53;;
1993;SDS011;998;49.906;10.908;2023-01-01T03:34:24;39.07;;;20.90;;
1993;SDS011;998;49.906;10.908;2023-01-01T03:36:57;37.27;;;23.43;;
1993;SDS011;998;49.906;10.908;2023-01-01T03:39:30;32.83;;;19.90;;
1993;SDS011;998;49.906;10.908;2023-01-01T03:42:01;35.67;;;21.07;;
1993;SDS011;998;49.906;10.908;2023-01-01T03:44:40;36.57;;;21.83;;
1993;SDS011;998;49.906;10.908;2023-01-01T03:47:13;33.40;;;22.80;;
1993;SDS011;998;49.906;10.908;2023-01-01T03:49:41;34.90;;;21.77;;
1993;SDS011;998;49.906;10.908;2023-01-01T03:52:14;33.93;;;21.20;;
1993;SDS011;998;49.906;10.908;2023-01-01T03:55:00;31.43;;;20.90;;
1993;SDS011;998;49.906;10.908;2023-01-01T03:57:34;32.20;;;18.90;;
1993;SDS011;998;49.906;10.908;2023-01-01T04:00:08;32.30;;;19.37;;
1993;SDS011;998;49.906;10.908;2023-01-01T04:02:43;31.53;;;18.90;;
1993;SDS011;998;49.906;10.908;2023-01-01T04:05:15;30.83;;;18.80;;
1993;SDS011;998;49.906;10.908;2023-01-01T04:07:44;31.00;;;16.87;;
1993;SDS011;998;49.906;10.908;2023-01-01T04:10:13;31.47;;;17.20;;
1993;SDS011;998;49.906;10.908;2023-01-01T04:12:45;29.50;;;16.10;;
1993;SDS011;998;49.906;10.908;2023-01-01T04:15:14;31.10;;;17.23;;
1993;SDS011;998;49.906;10.908;2023-01-01T04:17:43;36.47;;;19.37;;
1993;SDS011;998;49.906;10.908;2023-01-01T04:20:10;39.50;;;20.87;;
1993;SDS011;998;49.906;10.908;2023-01-01T04:22:39;37.70;;;18.50;;
1993;SDS011;998;49.906;10.908;2023-01-01T04:25:07;33.83;;;18.53;;
1993;SDS011;998;49.906;10.908;2023-01-01T04:27:35;39.10;;;18.73;;
1993;SDS011;998;49.906;10.908;2023-01-01T04:30:03;31.53;;;17.63;;
1993;SDS011;998;49.906;10.908;2023-01-01T04:32:32;34.63;;;17.87;;
1993;SDS011;998;49.906;10.908;2023-01-01T04:35:01;33.50;;;17.70;;
1993;SDS011;998;49.906;10.908;2023-01-01T04:37:28;29.60;;;14.77;;
1993;SDS011;998;49.906;10.908;2023-01-01T04:39:56;32.63;;;15.97;;
1993;SDS011;998;49.906;10.908;2023-01-01T04:42:23;30.60;;;14.27;;
1993;SDS011;998;49.906;10.908;2023-01-01T04:44:50;24.40;;;13.23;;
1993;SDS011;998;49.906;10.908;2023-01-01T04:47:18;32.77;;;16.17;;
1993;SDS011;998;49.906;10.908;2023-01-01T04:49:46;27.53;;;11.63;;
1993;SDS011;998;49.906;10.908;2023-01-01T04:52:15;30.13;;;15.20;;
1993;SDS011;998;49.906;10.908;2023-01-01T04:54:42;31.77;;;14.10;;
1993;SDS011;998;49.906;10.908;2023-01-01T04:57:10;29.77;;;14.93;;
1993;SDS011;998;49.906;10.908;2023-01-01T04:59:37;29.70;;;14.30;;
1993;SDS011;998;49.906;10.908;2023-01-01T05:02:05;28.10;;;14.03;;
1993;SDS011;998;49.906;10.908;2023-01-01T05:04:32;32.63;;;16.80;;
1993;SDS011;998;49.906;10.908;2023-01-01T05:07:00;28.60;;;13.80;;
1993;SDS011;998;49.906;10.908;2023-01-01T05:09:29;32.47;;;15.20;;
1993;SDS011;998;49.906;10.908;2023-01-01T05:11:56;28.50;;;14.07;;
1993;SDS011;998;49.906;10.908;2023-01-01T05:14:23;29.07;;;15.60;;
1993;SDS011;998;49.906;10.908;2023-01-01T05:16:51;28.20;;;13.07;;
1993;SDS011;998;49.906;10.908;2023-01-01T05:19:18;25.77;;;12.07;;
1993;SDS011;998;49.906;10.908;2023-01-01T05:21:46;28.27;;;13.73;;
1993;SDS011;998;49.906;10.908;2023-01-01T05:24:13;26.67;;;11.50;;
1993;SDS011;998;49.906;10.908;2023-01-01T05:26:42;27.23;;;13.40;;
1993;SDS011;998;49.906;10.908;2023-01-01T05:29:10;25.10;;;11.63;;
1993;SDS011;998;49.906;10.908;2023-01-01T05:31:37;27.77;;;12.50;;
1993;SDS011;998;49.906;10.908;2023-01-01T05:34:05;24.50;;;12.10;;
1993;SDS011;998;49.906;10.908;2023-01-01T05:36:33;25.93;;;12.70;;
1993;SDS011;998;49.906;10.908;2023-01-01T05:39:03;27.17;;;12.23;;
1993;SDS011;998;49.906;10.908;2023-01-01T05:41:31;28.30;;;12.97;;
1993;SDS011;998;49.906;10.908;2023-01-01T05:44:02;25.47;;;12.60;;
1993;SDS011;998;49.906;10.908;2023-01-01T05:46:30;31.47;;;12.47;;
1993;SDS011;998;49.906;10.908;2023-01-01T05:48:57;21.63;;;11.63;;
1993;SDS011;998;49.906;10.908;2023-01-01T05:51:26;24.20;;;11.33;;
1993;SDS011;998;49.906;10.908;2023-01-01T05:53:54;23.67;;;10.17;;
1993;SDS011;998;49.906;10.908;2023-01-01T05:56:22;23.97;;;11.53;;
1993;SDS011;998;49.906;10.908;2023-01-01T05:58:50;25.47;;;12.07;;
1993;SDS011;998;49.906;10.908;2023-01-01T06:01:19;25.60;;;12.00;;
1993;SDS011;998;49.906;10.908;2023-01-01T06:03:48;21.73;;;10.77;;
1993;SDS011;998;49.906;10.908;2023-01-01T06:06:17;22.60;;;9.60;;
1993;SDS011;998;49.906;10.908;2023-01-01T06:08:48;20.40;;;10.40;;
1993;SDS011;998;49.906;10.908;2023-01-01T06:11:16;27.80;;;9.90;;
1993;SDS011;998;49.906;10.908;2023-01-01T06:13:44;20.83;;;8.90;;
1993;SDS011;998;49.906;10.908;2023-01-01T06:16:12;22.67;;;9.40;;
1993;SDS011;998;49.906;10.908;2023-01-01T06:18:41;20.30;;;8.37;;
1993;SDS011;998;49.906;10.908;2023-01-01T06:21:09;24.40;;;9.07;;
1993;SDS011;998;49.906;10.908;2023-01-01T06:23:38;20.97;;;9.90;;
1993;SDS011;998;49.906;10.908;2023-01-01T06:26:06;20.30;;;8.97;;
1993;SDS011;998;49.906;10.908;2023-01-01T06:28:35;20.50;;;8.20;;
1993;SDS011;998;49.906;10.908;2023-01-01T06:31:03;21.30;;;8.70;;
1993;SDS011;998;49.906;10.908;2023-01-01T06:33:32;20.80;;;9.37;;
1993;SDS011;998;49.906;10.908;2023-01-01T06:36:02;17.03;;;7.13;;
1993;SDS011;998;49.906;10.908;2023-01-01T06:38:32;20.80;;;8.77;;
1993;SDS011;998;49.906;10.908;2023-01-01T06:41:00;21.07;;;7.93;;
1993;SDS011;998;49.906;10.908;2023-01-01T06:43:30;21.63;;;8.93;;
1993;SDS011;998;49.906;10.908;2023-01-01T06:45:59;22.13;;;9.13;;
1993;SDS011;998;49.906;10.908;2023-01-01T06:48:27;23.43;;;8.37;;
1993;SDS011;998;49.906;10.908;2023-01-01T06:50:56;25.93;;;9.80;;
1993;SDS011;998;49.906;10.908;2023-01-01T06:53:25;19.63;;;8.07;;
1993;SDS011;998;49.906;10.908;2023-01-01T06:55:52;20.97;;;7.90;;
1993;SDS011;998;49.906;10.908;2023-01-01T06:58:20;23.07;;;9.43;;
1993;SDS011;998;49.906;10.908;2023-01-01T07:00:47;22.93;;;8.33;;
1993;SDS011;998;49.906;10.908;2023-01-01T07:03:14;20.07;;;9.00;;
1993;SDS011;998;49.906;10.908;2023-01-01T07:05:42;23.17;;;10.13;;
1993;SDS011;998;49.906;10.908;2023-01-01T07:08:09;21.57;;;9.07;;
1993;SDS011;998;49.906;10.908;2023-01-01T07:10:38;23.10;;;10.20;;
1993;SDS011;998;49.906;10.908;2023-01-01T07:13:05;24.40;;;9.17;;
1993;SDS011;998;49.906;10.908;2023-01-01T07:15:33;22.00;;;9.53;;
1993;SDS011;998;49.906;10.908;2023-01-01T07:18:00;20.27;;;9.20;;
1993;SDS011;998;49.906;10.908;2023-01-01T07:20:27;22.67;;;9.77;;
1993;SDS011;998;49.906;10.908;2023-01-01T07:22:55;21.33;;;9.53;;
1993;SDS011;998;49.906;10.908;2023-01-01T07:25:22;20.57;;;9.03;;
1993;SDS011;998;49.906;10.908;2023-01-01T07:27:51;23.27;;;8.90;;
1993;SDS011;998;49.906;10.908;2023-01-01T07:30:20;23.03;;;9.17;;
1993;SDS011;998;49.906;10.908;2023-01-01T07:32:50;22.20;;;8.47;;
1993;SDS011;998;49.906;10.908;2023-01-01T07:35:20;19.53;;;8.30;;
1993;SDS011;998;49.906;10.908;2023-01-01T07:37:48;19.53;;;7.37;;
1993;SDS011;998;49.906;10.908;2023-01-01T07:40:15;21.30;;;8.80;;
1993;SDS011;998;49.906;10.908;2023-01-01T07:42:42;18.73;;;7.97;;
1993;SDS011;998;49.906;10.908;2023-01-01T07:45:12;20.30;;;7.13;;
1993;SDS011;998;49.906;10.908;2023-01-01T07:47:39;21.13;;;7.80;;
1993;SDS011;998;49.906;10.908;2023-01-01T07:50:09;20.40;;;8.00;;
1993;SDS011;998;49.906;10.908;2023-01-01T07:52:42;20.50;;;8.67;;
1993;SDS011;998;49.906;10.908;2023-01-01T07:55:10;19.03;;;8.33;;
1993;SDS011;998;49.906;10.908;2023-01-01T07:57:39;23.47;;;10.37;;
1993;SDS011;998;49.906;10.908;2023-01-01T08:00:07;19.07;;;8.10;;
1993;SDS011;998;49.906;10.908;2023-01-01T08:02:37;19.03;;;7.60;;
1993;SDS011;998;49.906;10.908;2023-01-01T08:05:05;19.00;;;6.70;;
1993;SDS011;998;49.906;10.908;2023-01-01T08:07:33;21.43;;;7.93;;
1993;SDS011;998;49.906;10.908;2023-01-01T08:10:01;15.77;;;5.53;;
1993;SDS011;998;49.906;10.908;2023-01-01T08:12:28;18.50;;;5.67;;
1993;SDS011;998;49.906;10.908;2023-01-01T08:14:56;17.50;;;6.60;;
1993;SDS011;998;49.906;10.908;2023-01-01T08:17:23;16.17;;;6.67;;
1993;SDS011;998;49.906;10.908;2023-01-01T08:19:52;16.77;;;6.77;;
1993;SDS011;998;49.906;10.908;2023-01-01T08:22:19;21.23;;;7.50;;
1993;SDS011;998;49.906;10.908;2023-01-01T08:24:47;16.40;;;6.87;;
1993;SDS011;998;49.906;10.908;2023-01-01T08:27:14;14.40;;;5.37;;
1993;SDS011;998;49.906;10.908;2023-01-01T08:29:42;17.30;;;6.40;;
1993;SDS011;998;49.906;10.908;2023-01-01T08:32:10;15.03;;;6.33;;
1993;SDS011;998;49.906;10.908;2023-01-01T08:34:38;15.00;;;5.97;;
1993;SDS011;998;49.906;10.908;2023-01-01T08:37:08;16.63;;;5.43;;
1993;SDS011;998;49.906;10.908;2023-01-01T08:39:38;16.13;;;5.17;;
1993;SDS011;998;49.906;10.908;2023-01-01T08:42:06;14.90;;;5.23;;
1993;SDS011;998;49.906;10.908;2023-01-01T08:44:33;16.20;;;5.73;;
1993;SDS011;998;49.906;10.908;2023-01-01T08:47:01;17.07;;;6.40;;
1993;SDS011;998;49.906;10.908;2023-01-01T08:49:28;15.70;;;5.70;;
1993;SDS011;998;49.906;10.908;2023-01-01T08:51:56;16.10;;;5.63;;
1993;SDS011;998;49.906;10.908;2023-01-01T08:54:24;13.27;;;4.73;;
1993;SDS011;998;49.906;10.908;2023-01-01T08:56:52;14.97;;;5.73;;
1993;SDS011;998;49.906;10.908;2023-01-01T08:59:19;16.40;;;6.30;;
1993;SDS011;998;49.906;10.908;2023-01-01T09:01:46;16.00;;;6.03;;
1993;SDS011;998;49.906;10.908;2023-01-01T09:04:14;13.10;;;5.30;;
1993;SDS011;998;49.906;10.908;2023-01-01T09:06:41;15.03;;;4.33;;
1993;SDS011;998;49.906;10.908;2023-01-01T09:09:08;13.27;;;4.87;;
1993;SDS011;998;49.906;10.908;2023-01-01T09:11:37;15.40;;;5.13;;
1993;SDS011;998;49.906;10.908;2023-01-01T09:14:05;13.47;;;5.27;;
1993;SDS011;998;49.906;10.908;2023-01-01T09:16:32;15.90;;;4.93;;
1993;SDS011;998;49.906;10.908;2023-01-01T09:18:59;13.40;;;4.93;;
1993;SDS011;998;49.906;10.908;2023-01-01T09:21:27;14.23;;;5.67;;
1993;SDS011;998;49.906;10.908;2023-01-01T09:23:54;14.33;;;4.10;;
1993;SDS011;998;49.906;10.908;2023-01-01T09:26:22;16.03;;;4.77;;
1993;SDS011;998;49.906;10.908;2023-01-01T09:28:50;16.80;;;6.70;;
1993;SDS011;998;49.906;10.908;2023-01-01T09:31:18;15.07;;;5.13;;
1993;SDS011;998;49.906;10.908;2023-01-01T09:33:45;15.30;;;5.67;;
1993;SDS011;998;49.906;10.908;2023-01-01T09:36:13;15.30;;;4.73;;
1993;SDS011;998;49.906;10.908;2023-01-01T09:38:41;12.00;;;3.90;;
1993;SDS011;998;49.906;10.908;2023-01-01T09:41:15;13.40;;;5.20;;
1993;SDS011;998;49.906;10.908;2023-01-01T09:43:53;15.43;;;5.67;;
1993;SDS011;998;49.906;10.908;2023-01-01T09:46:26;12.63;;;4.30;;
1993;SDS011;998;49.906;10.908;2023-01-01T09:48:55;16.17;;;5.33;;
1993;SDS011;998;49.906;10.908;2023-01-01T09:51:25;12.73;;;4.10;;
1993;SDS011;998;49.906;10.908;2023-01-01T09:53:57;12.13;;;4.77;;
1993;SDS011;998;49.906;10.908;2023-01-01T09:56:28;14.33;;;5.33;;
1993;SDS011;998;49.906;10.908;2023-01-01T09:58:58;10.73;;;3.80;;
1993;SDS011;998;49.906;10.908;2023-01-01T10:01:30;10.57;;;3.90;;
1993;SDS011;998;49.906;10.908;2023-01-01T10:04:16;12.07;;;5.17;;
1993;SDS011;998;49.906;10.908;2023-01-01T10:07:06;13.17;;;5.07;;
1993;SDS011;998;49.906;10.908;2023-01-01T10:09:43;12.27;;;5.07;;
1993;SDS011;998;49.906;10.908;2023-01-01T10:12:18;12.50;;;4.20;;
1993;SDS011;998;49.906;10.908;2023-01-01T10:14:54;11.20;;;4.27;;
1993;SDS011;998;49.906;10.908;2023-01-01T10:17:29;11.87;;;4.30;;
1993;SDS011;998;49.906;10.908;2023-01-01T10:20:01;12.13;;;4.27;;
1993;SDS011;998;49.906;10.908;2023-01-01T10:22:33;12.00;;;4.40;;
1993;SDS011;998;49.906;10.908;2023-01-01T10:25:12;15.10;;;4.90;;
1993;SDS011;998;49.906;10.908;2023-01-01T10:27:44;11.13;;;4.20;;
1993;SDS011;998;49.906;10.908;2023-01-01T10:30:18;9.70;;;3.73;;
1993;SDS011;998;49.906;10.908;2023-01-01T10:32:47;10.27;;;4.37;;
1993;SDS011;998;49.906;10.908;2023-01-01T10:35:17;9.17;;;4.07;;
1993;SDS011;998;49.906;10.908;2023-01-01T10:37:47;8.80;;;4.00;;
1993;SDS011;998;49.906;10.908;2023-01-01T10:40:17;7.77;;;3.30;;
1993;SDS011;998;49.906;10.908;2023-01-01T10:42:47;11.33;;;3.80;;
1993;SDS011;998;49.906;10.908;2023-01-01T10:45:16;9.07;;;4.10;;
1993;SDS011;998;49.906;10.908;2023-01-01T10:48:08;11.97;;;3.87;;
1993;SDS011;998;49.906;10.908;2023-01-01T10:50:44;8.00;;;3.47;;
1993;SDS011;998;49.906;10.908;2023-01-01T10:53:18;9.60;;;3.83;;
1993;SDS011;998;49.906;10.908;2023-01-01T10:55:49;8.60;;;3.80;;
1993;SDS011;998;49.906;10.908;2023-01-01T10:58:26;8.67;;;3.77;;
1993;SDS011;998;49.906;10.908;2023-01-01T11:01:01;6.50;;;3.43;;
1993;SDS011;998;49.906;10.908;2023-01-01T11:03:32;9.97;;;4.10;;
1993;SDS011;998;49.906;10.908;2023-01-01T11:06:16;9.37;;;3.97;;
1993;SDS011;998;49.906;10.908;2023-01-01T11:08:47;7.77;;;4.27;;
1993;SDS011;998;49.906;10.908;2023-01-01T11:11:19;12.60;;;4.33;;
1993;SDS011;998;49.906;10.908;2023-01-01T11:13:51;13.00;;;4.00;;
1993;SDS011;998;49.906;10.908;2023-01-01T11:16:21;10.20;;;4.00;;
1993;SDS011;998;49.906;10.908;2023-01-01T11:18:50;11.83;;;4.33;;
1993;SDS011;998;49.906;10.908;2023-01-01T11:21:18;8.33;;;4.43;;
1993;SDS011;998;49.906;10.908;2023-01-01T11:23:48;8.43;;;4.20;;
1993;SDS011;998;49.906;10.908;2023-01-01T11:26:19;6.57;;;3.33;;
1993;SDS011;998;49.906;10.908;2023-01-01T11:29:00;5.67;;;3.23;;
1993;SDS011;998;49.906;10.908;2023-01-01T11:31:32;8.57;;;4.30;;
1993;SDS011;998;49.906;10.908;2023-01-01T11:34:01;8.70;;;3.60;;
1993;SDS011;998;49.906;10.908;2023-01-01T11:36:31;7.20;;;3.80;;
1993;SDS011;998;49.906;10.908;2023-01-01T11:39:04;15.10;;;4.10;;
1993;SDS011;998;49.906;10.908;2023-01-01T11:41:40;9.10;;;4.33;;
1993;SDS011;998;49.906;10.908;2023-01-01T11:44:09;7.50;;;3.67;;
1993;SDS011;998;49.906;10.908;2023-01-01T11:46:43;9.10;;;3.57;;
1993;SDS011;998;49.906;10.908;2023-01-01T11:49:12;8.23;;;3.77;;
1993;SDS011;998;49.906;10.908;2023-01-01T11:51:46;6.30;;;3.60;;
1993;SDS011;998;49.906;10.908;2023-01-01T11:54:21;7.90;;;3.97;;
1993;SDS011;998;49.906;10.908;2023-01-01T11:56:52;6.63;;;3.17;;
1993;SDS011;998;49.906;10.908;2023-01-01T11:59:23;6.47;;;3.67;;
1993;SDS011;998;49.906;10.908;2023-01-01T12:01:56;7.30;;;3.50;;
1993;SDS011;998;49.906;10.908;2023-01-01T12:04:28;8.13;;;3.73;;
1993;SDS011;998;49.906;10.908;2023-01-01T12:07:01;5.90;;;3.50;;
1993;SDS011;998;49.906;10.908;2023-01-01T12:09:34;6.90;;;3.80;;
1993;SDS011;998;49.906;10.908;2023-01-01T12:12:08;7.90;;;3.90;;
1993;SDS011;998;49.906;10.908;2023-01-01T12:14:40;7.57;;;3.97;;
1993;SDS011;998;49.906;10.908;2023-01-01T12:17:13;9.63;;;3.60;;
1993;SDS011;998;49.906;10.908;2023-01-01T12:19:47;7.00;;;3.90;;
1993;SDS011;998;49.906;10.908;2023-01-01T12:22:22;6.30;;;3.27;;
1993;SDS011;998;49.906;10.908;2023-01-01T12:24:50;6.50;;;3.73;;
1993;SDS011;998;49.906;10.908;2023-01-01T12:27:21;6.80;;;4.00;;
1993;SDS011;998;49.906;10.908;2023-01-01T12:30:11;8.67;;;3.43;;
1993;SDS011;998;49.906;10.908;2023-01-01T12:32:49;7.73;;;3.63;;
1993;SDS011;998;49.906;10.908;2023-01-01T12:35:37;6.40;;;3.17;;
1993;SDS011;998;49.906;10.908;2023-01-01T12:38:17;4.97;;;2.77;;
1993;SDS011;998;49.906;10.908;2023-01-01T12:41:00;7.23;;;4.13;;
1993;SDS011;998;49.906;10.908;2023-01-01T12:43:37;7.33;;;4.20;;
1993;SDS011;998;49.906;10.908;2023-01-01T12:46:22;4.93;;;3.20;;
1993;SDS011;998;49.906;10.908;2023-01-01T12:49:10;4.53;;;2.77;;
1993;SDS011;998;49.906;10.908;2023-01-01T12:51:49;6.70;;;3.67;;
1993;SDS011;998;49.906;10.908;2023-01-01T12:54:31;5.80;;;3.20;;
1993;SDS011;998;49.906;10.908;2023-01-01T12:57:13;6.67;;;3.37;;
1993;SDS011;998;49.906;10.908;2023-01-01T12:59:50;5.90;;;2.50;;
1993;SDS011;998;49.906;10.908;2023-01-01T13:02:22;6.60;;;3.87;;
1993;SDS011;998;49.906;10.908;2023-01-01T13:04:53;5.83;;;3.00;;
1993;SDS011;998;49.906;10.908;2023-01-01T13:07:27;4.30;;;2.80;;
1993;SDS011;998;49.906;10.908;2023-01-01T13:09:57;6.07;;;3.30;;
1993;SDS011;998;49.906;10.908;2023-01-01T13:12:34;6.80;;;3.57;;
1993;SDS011;998;49.906;10.908;2023-01-01T13:18:15;6.63;;;3.00;;
1993;SDS011;998;49.906;10.908;2023-01-01T13:20:53;7.27;;;4.00;;
1993;SDS011;998;49.906;10.908;2023-01-01T13:23:42;8.23;;;3.30;;
1993;SDS011;998;49.906;10.908;2023-01-01T13:26:33;5.10;;;2.67;;
1993;SDS011;998;49.906;10.908;2023-01-01T13:32:00;9.73;;;3.43;;
1993;SDS011;998;49.906;10.908;2023-01-01T13:34:32;7.43;;;3.53;;
1993;SDS011;998;49.906;10.908;2023-01-01T13:43:04;8.60;;;4.30;;
1993;SDS011;998;49.906;10.908;2023-01-01T13:45:41;5.60;;;2.70;;
1993;SDS011;998;49.906;10.908;2023-01-01T13:48:20;7.07;;;3.23;;
1993;SDS011;998;49.906;10.908;2023-01-01T13:51:16;6.80;;;2.90;;
1993;SDS011;998;49.906;10.908;2023-01-01T13:54:03;12.27;;;3.83;;
1993;SDS011;998;49.906;10.908;2023-01-01T13:56:47;5.93;;;2.80;;
1993;SDS011;998;49.906;10.908;2023-01-01T13:59:30;5.07;;;2.80;;
1993;SDS011;998;49.906;10.908;2023-01-01T14:02:14;7.00;;;3.40;;
1993;SDS011;998;49.906;10.908;2023-01-01T14:04:48;6.57;;;3.00;;
1993;SDS011;998;49.906;10.908;2023-01-01T14:07:26;8.63;;;3.10;;
1993;SDS011;998;49.906;10.908;2023-01-01T14:10:12;10.43;;;2.90;;
1993;SDS011;998;49.906;10.908;2023-01-01T14:12:49;6.67;;;3.80;;
1993;SDS011;998;49.906;10.908;2023-01-01T14:15:25;8.57;;;4.23;;
1993;SDS011;998;49.906;10.908;2023-01-01T14:17:55;5.37;;;3.43;;
1993;SDS011;998;49.906;10.908;2023-01-01T14:20:27;12.23;;;4.37;;
1993;SDS011;998;49.906;10.908;2023-01-01T14:23:00;7.30;;;4.57;;
1993;SDS011;998;49.906;10.908;2023-01-01T14:25:33;6.80;;;3.33;;
1993;SDS011;998;49.906;10.908;2023-01-01T14:28:01;12.63;;;4.00;;
1993;SDS011;998;49.906;10.908;2023-01-01T14:30:29;5.60;;;3.27;;
1993;SDS011;998;49.906;10.908;2023-01-01T14:32:59;7.57;;;3.63;;
1993;SDS011;998;49.906;10.908;2023-01-01T14:35:28;9.70;;;3.57;;
1993;SDS011;998;49.906;10.908;2023-01-01T14:37:55;8.83;;;3.67;;
1993;SDS011;998;49.906;10.908;2023-01-01T14:40:23;10.63;;;4.50;;
1993;SDS011;998;49.906;10.908;2023-01-01T14:42:58;5.60;;;3.77;;
1993;SDS011;998;49.906;10.908;2023-01-01T14:45:28;8.50;;;3.70;;
1993;SDS011;998;49.906;10.908;2023-01-01T14:47:57;8.87;;;4.33;;
1993;SDS011;998;49.906;10.908;2023-01-01T14:50:27;11.10;;;5.60;;
1993;SDS011;998;49.906;10.908;2023-01-01T14:52:57;12.20;;;4.50;;
1993;SDS011;998;49.906;10.908;2023-01-01T14:55:31;9.53;;;4.70;;
1993;SDS011;998;49.906;10.908;2023-01-01T14:58:05;14.30;;;6.70;;
1993;SDS011;998;49.906;10.908;2023-01-01T15:00:36;9.57;;;4.40;;
1993;SDS011;998;49.906;10.908;2023-01-01T15:03:04;7.33;;;4.17;;
1993;SDS011;998;49.906;10.908;2023-01-01T15:05:33;8.03;;;4.30;;
1993;SDS011;998;49.906;10.908;2023-01-01T15:08:03;7.67;;;4.40;;
1993;SDS011;998;49.906;10.908;2023-01-01T15:10:32;7.67;;;3.30;;
1993;SDS011;998;49.906;10.908;2023-01-01T15:13:05;11.00;;;4.80;;
1993;SDS011;998;49.906;10.908;2023-01-01T15:15:36;7.87;;;4.40;;
1993;SDS011;998;49.906;10.908;2023-01-01T15:18:05;12.73;;;7.27;;
1993;SDS011;998;49.906;10.908;2023-01-01T15:20:59;15.23;;;6.50;;
1993;SDS011;998;49.906;10.908;2023-01-01T15:23:26;13.57;;;6.37;;
1993;SDS011;998;49.906;10.908;2023-01-01T15:25:54;9.50;;;5.67;;
1993;SDS011;998;49.906;10.908;2023-01-01T15:28:23;7.83;;;4.70;;
1993;SDS011;998;49.906;10.908;2023-01-01T15:30:51;7.67;;;4.43;;
1993;SDS011;998;49.906;10.908;2023-01-01T15:33:19;10.90;;;5.00;;
1993;SDS011;998;49.906;10.908;2023-01-01T15:35:48;7.50;;;3.90;;
1993;SDS011;998;49.906;10.908;2023-01-01T15:38:17;7.50;;;3.90;;